createdAt,value
2019-02-02T00:00:45.945Z,2.61
2019-02-02T00:03:18.872Z,2.55
2019-02-02T00:05:51.454Z,2.63
2019-02-02T00:08:24.083Z,2.72
2019-02-02T00:10:56.636Z,2.61
2019-02-02T00:13:29.230Z,2.50
2019-02-02T00:16:01.884Z,2.39
2019-02-02T00:18:34.504Z,2.33
2019-02-02T00:21:07.404Z,2.27
2019-02-02T00:23:40.054Z,2.15
2019-02-02T00:26:12.847Z,2.15
2019-02-02T00:28:45.547Z,2.14
2019-02-02T00:31:20.932Z,2.22
2019-02-02T00:33:53.801Z,2.24
2019-02-02T00:36:26.429Z,2.38
2019-02-02T00:38:59.139Z,2.41
2019-02-02T00:41:31.722Z,2.24
2019-02-02T00:44:05.285Z,2.17
2019-02-02T00:46:38.160Z,2.11
2019-02-02T00:49:10.733Z,2.09
2019-02-02T00:51:44.878Z,2.02
2019-02-02T00:54:17.437Z,1.89
2019-02-02T00:56:50.110Z,2.03
2019-02-02T00:59:22.825Z,2.03
2019-02-02T01:01:55.496Z,1.96
2019-02-02T01:04:28.210Z,1.89
2019-02-02T01:07:00.875Z,1.81
2019-02-02T01:09:33.527Z,1.80
2019-02-02T01:12:06.618Z,1.88
2019-02-02T01:14:39.239Z,1.81
2019-02-02T01:17:11.885Z,1.76
2019-02-02T01:19:44.518Z,1.77
2019-02-02T01:22:17.142Z,1.78
2019-02-02T01:24:49.733Z,1.74
2019-02-02T01:27:22.332Z,1.78
2019-02-02T01:29:54.970Z,1.71
2019-02-02T01:32:27.596Z,1.64
2019-02-02T01:35:00.338Z,1.67
2019-02-02T01:37:33.025Z,1.72
2019-02-02T01:40:07.741Z,1.73
2019-02-02T01:42:40.378Z,1.74
2019-02-02T01:45:19.603Z,1.76
2019-02-02T01:47:52.297Z,1.69
2019-02-02T01:50:26.031Z,1.59
2019-02-02T01:52:58.620Z,1.54
2019-02-02T01:55:31.360Z,1.48
2019-02-02T01:58:04.165Z,1.48
2019-02-02T02:00:39.146Z,1.49
2019-02-02T02:03:11.857Z,1.42
2019-02-02T02:05:44.637Z,1.35
2019-02-02T02:08:17.344Z,1.28
2019-02-02T02:10:49.937Z,1.30
2019-02-02T02:13:22.668Z,1.28
2019-02-02T02:15:55.374Z,1.30
2019-02-02T02:18:28.008Z,1.29
2019-02-02T02:21:00.790Z,1.21
2019-02-02T02:23:33.329Z,1.20
2019-02-02T02:26:05.942Z,1.23
2019-02-02T02:28:38.693Z,1.30
2019-02-02T02:31:11.261Z,1.26
2019-02-02T02:33:43.942Z,1.16
2019-02-02T02:36:16.567Z,1.05
2019-02-02T02:38:49.246Z,1.00
2019-02-02T02:41:22.046Z,0.96
2019-02-02T02:43:54.844Z,0.90
2019-02-02T02:46:27.421Z,0.87
2019-02-02T02:49:00.276Z,0.94
2019-02-02T02:51:32.925Z,0.92
2019-02-02T02:54:06.376Z,0.73
2019-02-02T02:56:39.080Z,0.46
2019-02-02T02:59:11.653Z,0.24
2019-02-02T03:01:44.235Z,0.27
2019-02-02T03:04:16.967Z,0.30
2019-02-02T03:06:49.641Z,0.33
2019-02-02T03:09:22.235Z,0.32
2019-02-02T03:11:55.058Z,0.34
2019-02-02T03:14:27.882Z,0.26
2019-02-02T03:17:00.541Z,0.32
2019-02-02T03:19:33.169Z,0.28
2019-02-02T03:22:05.827Z,0.26
2019-02-02T03:24:38.869Z,0.23
2019-02-02T03:27:11.533Z,0.23
2019-02-02T03:29:44.164Z,0.11
2019-02-02T03:32:16.825Z,0.00
2019-02-02T03:34:49.552Z,-0.05
2019-02-02T03:37:22.114Z,0.17
2019-02-02T03:39:54.698Z,0.28
2019-02-02T03:42:27.280Z,0.20
2019-02-02T03:44:59.937Z,0.24
2019-02-02T03:47:32.591Z,0.33
2019-02-02T03:50:07.468Z,0.37
2019-02-02T03:52:41.143Z,0.18
2019-02-02T03:55:15.124Z,0.06
2019-02-02T03:57:47.878Z,-0.05
2019-02-02T04:00:21.955Z,-0.12
2019-02-02T04:02:54.697Z,-0.18
2019-02-02T04:05:29.340Z,-0.27
2019-02-02T04:08:02.910Z,-0.36
2019-02-02T04:10:35.682Z,-0.28
2019-02-02T04:13:09.497Z,-0.28
2019-02-02T04:15:42.217Z,-0.29
2019-02-02T04:18:14.855Z,-0.38
2019-02-02T04:20:48.086Z,-0.35
2019-02-02T04:23:20.685Z,-0.26
2019-02-02T04:25:53.409Z,-0.21
2019-02-02T04:28:26.088Z,-0.32
2019-02-02T04:30:58.866Z,-0.34
2019-02-02T04:33:31.838Z,-0.28
2019-02-02T04:36:04.608Z,-0.09
2019-02-02T04:38:37.342Z,-0.06
2019-02-02T04:41:10.002Z,-0.11
2019-02-02T04:43:42.733Z,-0.09
2019-02-02T04:46:15.416Z,-0.06
2019-02-02T04:48:48.018Z,-0.07
2019-02-02T04:51:20.589Z,-0.18
2019-02-02T04:53:53.189Z,-0.35
2019-02-02T04:56:25.906Z,-0.23
2019-02-02T04:58:58.564Z,-0.10
2019-02-02T05:01:31.202Z,0.03
2019-02-02T05:04:04.032Z,-0.09
2019-02-02T05:06:36.854Z,-0.07
2019-02-02T05:09:10.279Z,-0.06
2019-02-02T05:11:42.907Z,0.00
2019-02-02T05:14:15.535Z,0.15
2019-02-02T05:16:48.177Z,0.28
2019-02-02T05:19:21.333Z,0.29
2019-02-02T05:21:53.967Z,0.33
2019-02-02T05:24:26.570Z,0.32
2019-02-02T05:26:59.246Z,0.30
2019-02-02T05:29:40.985Z,0.40
2019-02-02T05:32:08.251Z,0.49
2019-02-02T05:34:40.491Z,0.44
2019-02-02T05:37:13.082Z,0.63
2019-02-02T05:39:45.969Z,0.66
2019-02-02T05:42:18.542Z,0.65
2019-02-02T05:44:51.164Z,0.68
2019-02-02T05:47:23.822Z,0.76
2019-02-02T05:49:56.459Z,0.73
2019-02-02T05:52:28.987Z,0.90
2019-02-02T05:55:01.875Z,0.93
2019-02-02T05:57:34.429Z,1.04
2019-02-02T06:00:13.734Z,1.04
2019-02-02T06:02:46.504Z,0.88
2019-02-02T06:05:19.121Z,0.80
2019-02-02T06:07:51.738Z,0.90
2019-02-02T06:10:24.405Z,0.90
2019-02-02T06:12:57.008Z,0.90
2019-02-02T06:15:29.707Z,1.05
2019-02-02T06:18:02.386Z,1.05
2019-02-02T06:20:35.094Z,1.11
2019-02-02T06:23:07.654Z,0.97
2019-02-02T06:25:40.315Z,0.96
2019-02-02T06:28:12.980Z,0.85
2019-02-02T06:30:46.593Z,0.86
2019-02-02T06:33:19.178Z,0.89
2019-02-02T06:35:51.912Z,0.88
2019-02-02T06:38:24.542Z,0.78
2019-02-02T06:40:57.177Z,0.66
2019-02-02T06:43:30.334Z,0.69
2019-02-02T06:46:03.332Z,0.57
2019-02-02T06:48:36.001Z,0.39
2019-02-02T06:51:08.628Z,0.19
2019-02-02T06:53:41.238Z,0.07
2019-02-02T06:56:13.958Z,-0.11
2019-02-02T06:58:46.648Z,-0.25
2019-02-02T07:01:19.375Z,-0.25
2019-02-02T07:03:52.049Z,-0.15
2019-02-02T07:06:24.849Z,-0.09
2019-02-02T07:08:57.616Z,-0.13
2019-02-02T07:11:30.274Z,-0.32
2019-02-02T07:14:02.840Z,-0.38
2019-02-02T07:16:35.480Z,-0.39
2019-02-02T07:19:08.193Z,-0.45
2019-02-02T07:21:40.885Z,-0.58
2019-02-02T07:24:13.563Z,-0.57
2019-02-02T07:26:46.114Z,-0.52
2019-02-02T07:29:18.753Z,-0.55
2019-02-02T07:31:51.398Z,-0.54
2019-02-02T07:34:24.082Z,-0.38
2019-02-02T07:36:56.758Z,-0.24
2019-02-02T07:39:29.441Z,-0.11
2019-02-02T07:42:02.343Z,0.05
2019-02-02T07:44:35.266Z,0.11
2019-02-02T07:47:09.308Z,0.14
2019-02-02T07:49:42.280Z,0.12
2019-02-02T07:52:14.911Z,0.20
2019-02-02T07:54:47.544Z,0.18
2019-02-02T07:57:20.307Z,0.26
2019-02-02T07:59:52.933Z,0.39
2019-02-02T08:02:25.733Z,0.43
2019-02-02T08:04:58.409Z,0.41
2019-02-02T08:07:31.076Z,0.43
2019-02-02T08:10:04.618Z,0.47
2019-02-02T08:12:37.346Z,0.49
2019-02-02T08:15:14.462Z,0.57
2019-02-02T08:17:47.236Z,0.76
2019-02-02T08:20:19.893Z,1.19
2019-02-02T08:22:52.812Z,1.77
2019-02-02T08:25:25.557Z,2.35
2019-02-02T08:27:58.304Z,2.31
2019-02-02T08:30:35.740Z,2.19
2019-02-02T08:33:09.019Z,1.90
2019-02-02T08:35:41.779Z,1.81
2019-02-02T08:38:14.554Z,1.87
2019-02-02T08:40:47.146Z,1.82
2019-02-02T08:43:19.927Z,1.78
2019-02-02T08:45:52.605Z,1.76
2019-02-02T08:48:25.288Z,1.89
2019-02-02T08:50:58.034Z,2.15
2019-02-02T08:53:30.711Z,2.17
2019-02-02T08:56:03.463Z,2.19
2019-02-02T08:58:36.164Z,2.29
2019-02-02T09:01:08.822Z,2.83
2019-02-02T09:03:41.382Z,2.83
2019-02-02T09:06:14.140Z,2.80
2019-02-02T09:08:46.987Z,2.94
2019-02-02T09:11:19.687Z,2.99
2019-02-02T09:13:52.323Z,3.27
2019-02-02T09:16:25.090Z,3.73
2019-02-02T09:18:58.403Z,4.35
2019-02-02T09:21:31.506Z,4.66
2019-02-02T09:24:04.102Z,5.61
2019-02-02T09:26:36.823Z,6.19
2019-02-02T09:29:13.184Z,6.70
2019-02-02T09:31:46.200Z,6.64
2019-02-02T09:34:18.932Z,7.11
2019-02-02T09:36:51.648Z,7.58
2019-02-02T09:39:24.305Z,7.55
2019-02-02T09:41:57.348Z,7.52
2019-02-02T09:44:30.077Z,6.86
2019-02-02T09:47:02.731Z,6.16
2019-02-02T09:49:35.534Z,6.06
2019-02-02T09:52:08.232Z,6.19
2019-02-02T09:54:40.923Z,6.00
2019-02-02T09:57:13.483Z,6.16
2019-02-02T09:59:46.344Z,6.43
2019-02-02T10:02:37.116Z,6.84
2019-02-02T10:05:10.266Z,6.69
2019-02-02T10:07:42.970Z,6.66
2019-02-02T10:10:19.755Z,6.25
2019-02-02T10:12:52.449Z,5.79
2019-02-02T10:15:25.127Z,5.35
2019-02-02T10:17:57.830Z,5.25
2019-02-02T10:20:31.638Z,5.38
2019-02-02T10:23:04.263Z,5.76
2019-02-02T10:25:36.192Z,6.07
2019-02-02T10:28:08.829Z,6.22
2019-02-02T10:30:44.125Z,6.55
2019-02-02T10:33:17.833Z,6.90
2019-02-02T10:35:50.414Z,6.83
2019-02-02T10:38:22.987Z,6.49
2019-02-02T10:40:55.630Z,6.41
2019-02-02T10:43:28.356Z,6.03
2019-02-02T10:46:00.944Z,5.85
2019-02-02T10:48:33.669Z,5.67
2019-02-02T10:51:08.114Z,5.91
2019-02-02T10:53:40.751Z,6.18
2019-02-02T10:56:13.425Z,6.55
2019-02-02T10:58:47.146Z,6.47
2019-02-02T11:01:19.779Z,7.04
2019-02-02T11:03:52.407Z,7.49
2019-02-02T11:06:25.133Z,7.79
2019-02-02T11:08:57.843Z,7.97
2019-02-02T11:11:30.594Z,8.89
2019-02-02T11:14:03.401Z,9.56
2019-02-02T11:16:36.048Z,10.08
2019-02-02T11:19:08.766Z,11.59
2019-02-02T11:21:41.596Z,11.96
2019-02-02T11:24:14.359Z,12.46
2019-02-02T11:26:47.245Z,13.38
2019-02-02T11:29:19.966Z,12.37
2019-02-02T11:32:02.586Z,11.39
2019-02-02T11:34:27.002Z,10.17
2019-02-02T11:36:59.689Z,8.43
2019-02-02T11:39:32.372Z,7.75
2019-02-02T11:42:05.039Z,7.77
2019-02-02T11:44:37.695Z,7.54
2019-02-02T11:47:10.342Z,7.66
2019-02-02T11:49:43.000Z,7.74
2019-02-02T11:52:15.710Z,7.98
2019-02-02T11:54:48.519Z,8.51
2019-02-02T11:57:21.257Z,8.65
2019-02-02T11:59:53.971Z,8.90
2019-02-02T12:02:26.601Z,10.69
2019-02-02T12:05:01.477Z,11.30
2019-02-02T12:07:34.181Z,12.44
2019-02-02T12:10:09.904Z,12.16
2019-02-02T12:12:42.573Z,12.28
2019-02-02T12:15:17.422Z,12.47
2019-02-02T12:17:50.819Z,11.92
2019-02-02T12:20:23.673Z,12.38
2019-02-02T12:22:56.429Z,12.25
2019-02-02T12:25:29.137Z,12.72
2019-02-02T12:28:01.925Z,12.70
2019-02-02T12:30:36.567Z,13.64
2019-02-02T12:33:09.462Z,12.23
2019-02-02T12:35:42.305Z,10.99
2019-02-02T12:38:15.113Z,9.71
2019-02-02T12:40:47.807Z,8.95
2019-02-02T12:43:20.534Z,7.97
2019-02-02T12:45:55.030Z,7.76
2019-02-02T12:48:27.650Z,7.66
2019-02-02T12:51:00.427Z,7.36
2019-02-02T12:53:33.052Z,7.07
2019-02-02T12:56:05.733Z,6.87
2019-02-02T12:58:38.484Z,6.60
2019-02-02T13:01:11.040Z,6.60
2019-02-02T13:03:43.714Z,6.52
2019-02-02T13:06:16.502Z,6.61
2019-02-02T13:08:49.154Z,6.55
2019-02-02T13:11:24.037Z,6.62
2019-02-02T13:13:56.257Z,6.68
2019-02-02T13:16:28.988Z,6.65
2019-02-02T13:19:01.730Z,6.75
2019-02-02T13:21:34.299Z,6.61
2019-02-02T13:24:07.107Z,6.81
2019-02-02T13:26:39.828Z,6.78
2019-02-02T13:29:12.424Z,6.90
2019-02-02T13:31:45.022Z,7.03
2019-02-02T13:34:17.759Z,7.16
2019-02-02T13:36:50.357Z,7.20
2019-02-02T13:39:22.974Z,7.20
2019-02-02T13:41:55.607Z,7.28
2019-02-02T13:44:29.354Z,6.98
2019-02-02T13:47:02.074Z,7.28
2019-02-02T13:49:34.728Z,7.54
2019-02-02T13:52:07.380Z,7.61
2019-02-02T13:54:40.010Z,7.83
2019-02-02T13:57:12.604Z,8.02
2019-02-02T13:59:45.316Z,7.90
2019-02-02T14:02:18.089Z,7.71
2019-02-02T14:04:50.777Z,7.61
2019-02-02T14:07:23.488Z,7.70
2019-02-02T14:09:56.166Z,7.50
2019-02-02T14:12:28.878Z,7.47
2019-02-02T14:15:01.469Z,7.48
2019-02-02T14:17:34.068Z,7.29
2019-02-02T14:20:08.165Z,6.95
2019-02-02T14:22:40.929Z,6.71
2019-02-02T14:25:14.305Z,6.28
2019-02-02T14:27:46.938Z,6.06
2019-02-02T14:30:22.232Z,5.86
2019-02-02T14:32:55.476Z,5.69
2019-02-02T14:35:29.220Z,5.74
2019-02-02T14:38:01.853Z,5.71
2019-02-02T14:40:34.521Z,5.69
2019-02-02T14:43:07.108Z,5.64
2019-02-02T14:45:39.835Z,5.73
2019-02-02T14:48:12.580Z,5.66
2019-02-02T14:50:45.343Z,5.50
2019-02-02T14:53:17.946Z,5.46
2019-02-02T14:55:50.778Z,5.35
2019-02-02T14:58:23.491Z,5.33
2019-02-02T15:00:56.116Z,5.33
2019-02-02T15:03:28.748Z,5.30
2019-02-02T15:06:01.375Z,5.21
2019-02-02T15:08:33.962Z,5.17
2019-02-02T15:11:06.749Z,5.14
2019-02-02T15:13:39.388Z,5.17
2019-02-02T15:16:12.029Z,5.12
2019-02-02T15:18:44.684Z,5.06
2019-02-02T15:21:16.622Z,5.03
2019-02-02T15:23:48.888Z,4.85
2019-02-02T15:26:21.419Z,4.67
2019-02-02T15:28:54.165Z,4.64
2019-02-02T15:31:26.875Z,4.58
2019-02-02T15:33:59.528Z,4.53
2019-02-02T15:36:32.077Z,4.46
2019-02-02T15:39:08.034Z,4.39
2019-02-02T15:41:52.429Z,4.38
2019-02-02T15:44:15.178Z,4.33
2019-02-02T15:46:49.302Z,4.27
2019-02-02T15:49:22.499Z,4.27
2019-02-02T15:51:55.181Z,4.31
2019-02-02T15:54:28.065Z,4.26
2019-02-02T15:57:03.441Z,4.29
2019-02-02T15:59:38.761Z,4.30
2019-02-02T16:02:10.416Z,4.35
2019-02-02T16:04:43.068Z,4.38
2019-02-02T16:07:15.778Z,4.40
2019-02-02T16:09:52.205Z,4.35
2019-02-02T16:12:24.848Z,4.37
2019-02-02T16:14:57.440Z,4.35
2019-02-02T16:17:30.120Z,4.33
2019-02-02T16:20:02.640Z,4.33
2019-02-02T16:22:35.416Z,4.34
2019-02-02T16:25:11.005Z,4.35
2019-02-02T16:27:43.596Z,4.31
2019-02-02T16:30:23.766Z,4.29
2019-02-02T16:32:56.838Z,4.23
2019-02-02T16:35:30.166Z,4.21
2019-02-02T16:38:02.741Z,4.16
2019-02-02T16:40:35.391Z,4.15
2019-02-02T16:43:08.176Z,4.13
2019-02-02T16:45:40.751Z,4.09
2019-02-02T16:48:13.331Z,4.14
2019-02-02T16:50:45.963Z,4.09
2019-02-02T16:53:21.709Z,4.03
2019-02-02T16:55:53.261Z,4.00
2019-02-02T16:58:25.864Z,3.96
2019-02-02T17:00:58.529Z,4.01
2019-02-02T17:03:31.307Z,3.99
2019-02-02T17:06:04.129Z,4.03
2019-02-02T17:08:36.702Z,3.95
2019-02-02T17:11:09.302Z,3.85
2019-02-02T17:13:43.363Z,3.82
2019-02-02T17:16:15.891Z,3.75
2019-02-02T17:18:48.890Z,3.75
2019-02-02T17:21:21.672Z,3.73
2019-02-02T17:23:54.357Z,3.76
2019-02-02T17:26:26.987Z,3.70
2019-02-02T17:28:59.692Z,3.70
2019-02-02T17:31:32.348Z,3.62
2019-02-02T17:34:05.098Z,3.56
2019-02-02T17:36:37.823Z,3.57
2019-02-02T17:39:10.900Z,3.43
2019-02-02T17:41:43.502Z,3.45
2019-02-02T17:44:16.155Z,3.42
2019-02-02T17:46:48.775Z,3.41
2019-02-02T17:49:21.675Z,3.45
2019-02-02T17:51:54.252Z,3.42
2019-02-02T17:54:26.945Z,3.46
2019-02-02T17:56:59.519Z,3.47
2019-02-02T17:59:32.466Z,3.52
2019-02-02T18:02:05.193Z,3.53
2019-02-02T18:04:42.677Z,3.50
2019-02-02T18:07:12.550Z,3.48
2019-02-02T18:09:46.819Z,3.42
2019-02-02T18:12:19.450Z,3.47
2019-02-02T18:14:52.090Z,3.53
2019-02-02T18:17:24.773Z,3.54
2019-02-02T18:19:57.680Z,3.61
2019-02-02T18:22:30.331Z,3.58
2019-02-02T18:25:03.442Z,3.48
2019-02-02T18:27:36.127Z,3.47
2019-02-02T18:30:17.795Z,3.48
2019-02-02T18:32:51.583Z,3.52
2019-02-02T18:35:24.499Z,3.56
2019-02-02T18:37:57.327Z,3.54
2019-02-02T18:40:35.983Z,3.54
2019-02-02T18:43:08.628Z,3.49
2019-02-02T18:45:41.377Z,3.49
2019-02-02T18:48:14.064Z,3.51
2019-02-02T18:50:46.628Z,3.55
2019-02-02T18:53:19.143Z,3.64
2019-02-02T18:56:14.905Z,3.62
2019-02-02T18:58:47.919Z,3.58
2019-02-02T19:01:20.594Z,3.55
2019-02-02T19:03:53.280Z,3.49
2019-02-02T19:06:25.921Z,3.57
2019-02-02T19:08:58.609Z,3.56
2019-02-02T19:11:31.737Z,3.57
2019-02-02T19:14:05.081Z,3.57
2019-02-02T19:16:37.724Z,3.60
2019-02-02T19:19:10.355Z,3.63
2019-02-02T19:21:47.848Z,3.59
2019-02-02T19:24:20.498Z,3.58
2019-02-02T19:26:53.196Z,3.56
2019-02-02T19:29:25.907Z,3.54
2019-02-02T19:31:58.781Z,3.60
2019-02-02T19:34:31.420Z,3.58
2019-02-02T19:37:06.151Z,3.56
2019-02-02T19:39:38.920Z,3.44
2019-02-02T19:42:13.378Z,3.45
2019-02-02T19:44:46.136Z,3.43
2019-02-02T19:47:18.780Z,3.43
2019-02-02T19:49:52.382Z,3.40
2019-02-02T19:52:30.617Z,3.46
2019-02-02T19:55:14.320Z,3.44
2019-02-02T19:57:41.932Z,3.42
2019-02-02T20:00:22.017Z,3.41
2019-02-02T20:02:54.331Z,3.39
2019-02-02T20:05:28.991Z,3.35
2019-02-02T20:08:01.345Z,3.33
2019-02-02T20:10:34.077Z,3.27
2019-02-02T20:13:07.316Z,3.24
2019-02-02T20:15:39.954Z,3.22
2019-02-02T20:18:12.660Z,3.21
2019-02-02T20:20:45.258Z,3.22
2019-02-02T20:23:17.991Z,3.20
2019-02-02T20:25:50.884Z,3.17
2019-02-02T20:28:24.535Z,3.13
2019-02-02T20:30:57.303Z,3.13
2019-02-02T20:33:29.883Z,3.09
2019-02-02T20:36:02.529Z,3.10
2019-02-02T20:38:35.200Z,3.09
2019-02-02T20:41:07.910Z,3.06
2019-02-02T20:43:40.641Z,3.08
2019-02-02T20:46:13.474Z,2.99
2019-02-02T20:48:46.099Z,2.95
2019-02-02T20:51:18.723Z,2.95
2019-02-02T20:53:51.372Z,2.88
2019-02-02T20:56:24.017Z,2.80
2019-02-02T20:58:56.777Z,2.76
2019-02-02T21:01:29.420Z,2.73
2019-02-02T21:04:02.065Z,2.77
2019-02-02T21:06:34.631Z,2.82
2019-02-02T21:09:09.340Z,2.81
2019-02-02T21:11:42.054Z,2.77
2019-02-02T21:14:14.699Z,2.84
2019-02-02T21:16:47.319Z,2.82
2019-02-02T21:19:20.064Z,2.83
2019-02-02T21:21:52.719Z,2.85
2019-02-02T21:24:25.340Z,2.79
2019-02-02T21:26:58.300Z,2.75
2019-02-02T21:29:30.997Z,2.74
2019-02-02T21:32:03.790Z,2.66
2019-02-02T21:34:36.452Z,2.69
2019-02-02T21:37:09.022Z,2.66
2019-02-02T21:39:41.928Z,2.62
2019-02-02T21:42:15.950Z,2.59
2019-02-02T21:44:48.620Z,2.57
2019-02-02T21:47:21.286Z,2.53
2019-02-02T21:49:54.202Z,2.43
2019-02-02T21:52:27.398Z,2.48
2019-02-02T21:55:00.188Z,2.43
2019-02-02T21:57:32.931Z,2.40
2019-02-02T22:00:09.240Z,2.31
2019-02-02T22:02:41.920Z,2.31
2019-02-02T22:05:17.353Z,2.19
2019-02-02T22:07:50.010Z,2.15
2019-02-02T22:10:23.025Z,2.15
2019-02-02T22:12:55.683Z,2.07
2019-02-02T22:15:29.815Z,2.03
2019-02-02T22:18:02.611Z,2.06
2019-02-02T22:20:35.247Z,2.06
2019-02-02T22:23:08.003Z,1.97
2019-02-02T22:25:40.801Z,1.99
2019-02-02T22:28:13.508Z,1.92
2019-02-02T22:30:46.090Z,1.87
2019-02-02T22:33:18.934Z,1.84
2019-02-02T22:35:51.616Z,1.84
2019-02-02T22:38:24.261Z,1.79
2019-02-02T22:40:56.957Z,1.80
2019-02-02T22:43:29.666Z,1.77
2019-02-02T22:46:02.446Z,1.73
2019-02-02T22:48:43.095Z,1.73
2019-02-02T22:51:15.675Z,1.71
2019-02-02T22:53:48.421Z,1.62
2019-02-02T22:56:21.253Z,1.52
2019-02-02T22:58:53.507Z,1.58
2019-02-02T23:01:53.070Z,1.55
2019-02-02T23:04:55.152Z,1.51
2019-02-02T23:07:49.151Z,1.45
2019-02-02T23:11:30.873Z,1.43
2019-02-02T23:15:03.789Z,1.43
2019-02-02T23:17:36.519Z,1.32
2019-02-02T23:20:09.863Z,1.17
2019-02-02T23:22:42.753Z,1.14
2019-02-02T23:25:15.481Z,1.08
2019-02-02T23:27:48.358Z,1.03
2019-02-02T23:30:21.157Z,1.04
2019-02-02T23:32:53.884Z,1.03
2019-02-02T23:35:26.603Z,0.98
2019-02-02T23:37:59.345Z,0.99
2019-02-02T23:40:32.380Z,0.97
2019-02-02T23:43:05.013Z,0.98
2019-02-02T23:45:37.632Z,1.01
2019-02-02T23:48:10.255Z,1.01
2019-02-02T23:50:42.986Z,0.96
2019-02-02T23:53:15.570Z,0.94
2019-02-02T23:55:48.133Z,0.89
2019-02-02T23:58:20.055Z,0.91
